Time;durP1;ratioP1;P1;durP2;ratioP2;P2;SDS_P1;SDS_P2;PMS_P1;PMS_P2;Temp;Humidity;BMP_temperature;BMP_pressure;BME280_temperature;BME280_humidity;BME280_pressure;Samples;Min_cycle;Max_cycle;Signal;HPM_P1;HPM_P2
2022/01/04 00:00:14;;;;;;;4.13;1.38;;;;;;;9.73;100.00;99399.00;20950833;28;20048;-68
2022/01/04 00:10:21;;;;;;;5.65;1.60;;;;;;;9.86;100.00;99383.78;20948021;28;20049;-69
2022/01/04 00:20:23;;;;;;;5.20;1.73;;;;;;;9.78;100.00;99364.88;20949480;28;20103;-69
2022/01/04 00:30:28;;;;;;;5.65;1.67;;;;;;;9.85;100.00;99340.25;20946309;28;20044;-69
2022/01/04 00:40:31;;;;;;;5.95;1.67;;;;;;;9.87;100.00;99321.91;20947300;28;20075;-69
2022/01/04 00:50:34;;;;;;;6.40;2.20;;;;;;;9.80;100.00;99295.09;20948238;28;20044;-69
2022/01/04 01:00:36;;;;;;;5.78;1.88;;;;;;;9.80;100.00;99279.41;20944549;28;20064;-69
2022/01/04 01:10:47;;;;;;;6.45;2.22;;;;;;;9.86;100.00;99252.22;20945068;28;20044;-69
2022/01/04 01:20:49;;;;;;;4.45;1.98;;;;;;;9.77;100.00;99221.97;20950651;28;20131;-69
2022/01/04 01:30:51;;;;;;;4.05;1.80;;;;;;;9.85;100.00;99193.00;20941704;28;20753;-68
2022/01/04 01:40:53;;;;;;;4.85;2.00;;;;;;;9.87;100.00;99176.38;20901371;28;20060;-69
2022/01/04 01:50:55;;;;;;;5.82;2.28;;;;;;;9.81;100.00;99165.25;20932210;28;20093;-69
2022/01/04 02:00:57;;;;;;;5.15;1.90;;;;;;;9.76;100.00;99141.88;20940026;28;20041;-69
2022/01/04 02:10:59;;;;;;;4.30;1.85;;;;;;;9.80;100.00;99127.78;20942573;28;20478;-69
2022/01/04 02:21:00;;;;;;;4.80;1.75;;;;;;;9.82;100.00;99099.88;20939721;28;20048;-69
2022/01/04 02:31:02;;;;;;;4.25;1.70;;;;;;;9.70;100.00;99079.34;20942227;28;20037;-69
2022/01/04 02:41:04;;;;;;;4.78;1.73;;;;;;;9.67;100.00;99074.22;20941081;28;20049;-69
2022/01/04 02:51:05;;;;;;;5.13;1.98;;;;;;;9.67;100.00;99048.94;20957230;28;20052;-68
2022/01/04 03:01:07;;;;;;;4.70;2.00;;;;;;;9.66;100.00;99020.25;20949915;28;20132;-70
2022/01/04 03:11:08;;;;;;;6.40;2.25;;;;;;;9.76;100.00;99017.25;20956028;28;20051;-69
2022/01/04 03:21:10;;;;;;;5.65;2.50;;;;;;;9.71;100.00;98985.19;20952502;28;20080;-68
2022/01/04 03:31:13;;;;;;;5.22;2.00;;;;;;;9.68;100.00;98964.41;20953299;28;20044;-68
2022/01/04 03:41:18;;;;;;;7.53;2.30;;;;;;;9.74;100.00;98943.28;20951061;28;20053;-69
2022/01/04 03:51:19;;;;;;;4.68;2.28;;;;;;;9.68;100.00;98940.03;20950576;28;20044;-68
2022/01/04 04:01:21;;;;;;;4.75;2.20;;;;;;;9.63;100.00;98902.72;20949132;28;20518;-69
2022/01/04 04:11:26;;;;;;;6.50;2.35;;;;;;;9.56;100.00;98877.75;20951250;28;20139;-69
2022/01/04 04:21:28;;;;;;;4.28;2.00;;;;;;;9.71;100.00;98866.72;20949217;28;20464;-70
2022/01/04 04:31:29;;;;;;;6.68;2.05;;;;;;;9.72;100.00;98850.13;20947055;28;20049;-69
2022/01/04 04:41:31;;;;;;;5.20;1.80;;;;;;;9.68;100.00;98830.28;20945608;28;20040;-68
2022/01/04 04:51:33;;;;;;;5.43;1.80;;;;;;;9.68;100.00;98814.59;20947356;28;20387;-69
2022/01/04 05:01:36;;;;;;;4.38;1.70;;;;;;;9.75;100.00;98767.25;20944548;28;20049;-69
2022/01/04 05:11:38;;;;;;;6.90;2.95;;;;;;;9.77;100.00;98756.72;20942351;28;20053;-69
2022/01/04 05:21:40;;;;;;;4.55;2.05;;;;;;;9.90;100.00;98741.41;20942689;28;20094;-68
2022/01/04 05:31:41;;;;;;;4.05;1.38;;;;;;;9.84;100.00;98711.16;20940180;28;20048;-69
2022/01/04 05:41:43;;;;;;;4.07;1.50;;;;;;;9.95;100.00;98703.72;20940913;28;20511;-69
2022/01/04 05:51:45;;;;;;;4.45;1.23;;;;;;;9.91;100.00;98686.44;20942672;28;20048;-69
2022/01/04 06:01:47;;;;;;;4.20;1.80;;;;;;;9.90;100.00;98669.06;20939581;28;20505;-70
2022/01/04 06:21:50;;;;;;;2.83;1.42;;;;;;;10.01;100.00;98632.91;20937458;28;20480;-69
2022/01/04 06:31:52;;;;;;;4.57;2.05;;;;;;;10.05;100.00;98630.13;20940155;28;20045;-69
2022/01/04 06:41:54;;;;;;;3.63;1.60;;;;;;;10.09;100.00;98616.03;20937626;28;20049;-68
2022/01/04 06:51:55;;;;;;;4.05;1.90;;;;;;;10.10;100.00;98596.78;20940461;28;20390;-70
2022/01/04 07:01:56;;;;;;;5.05;1.98;;;;;;;10.11;100.00;98593.25;20935902;28;20094;-68
2022/01/04 07:11:58;;;;;;;4.18;2.00;;;;;;;10.13;100.00;98576.59;20936607;28;20053;-69
2022/01/04 07:22:00;;;;;;;5.22;2.28;;;;;;;10.26;100.00;98562.13;20940626;28;20049;-69
2022/01/04 07:32:02;;;;;;;6.50;2.30;;;;;;;10.22;100.00;98552.66;20946092;28;20063;-69
2022/01/04 07:42:03;;;;;;;5.00;2.03;;;;;;;10.24;100.00;98570.94;20910337;28;20048;-69
2022/01/04 07:52:05;;;;;;;4.68;2.03;;;;;;;10.36;100.00;98557.31;20948313;28;20044;-69
2022/01/04 08:02:07;;;;;;;5.47;2.10;;;;;;;10.31;100.00;98541.00;20967011;28;20056;-69
2022/01/04 08:12:08;;;;;;;3.40;1.70;;;;;;;10.40;100.00;98532.72;20942398;28;20393;-69
2022/01/04 08:22:10;;;;;;;6.03;2.50;;;;;;;10.44;100.00;98508.13;20943412;28;20048;-70
2022/01/04 08:32:11;;;;;;;5.32;2.17;;;;;;;10.46;100.00;98493.19;20948162;28;20037;-70
2022/01/04 08:42:13;;;;;;;5.47;2.10;;;;;;;10.48;100.00;98478.25;20950732;28;20045;-69
2022/01/04 08:52:15;;;;;;;6.22;2.13;;;;;;;10.61;100.00;98473.31;20940880;28;20102;-68
2022/01/04 09:02:16;;;;;;;5.10;2.38;;;;;;;10.65;100.00;98453.94;20935544;28;20045;-71
2022/01/04 09:12:22;;;;;;;4.25;1.85;;;;;;;10.68;100.00;98447.69;20939638;28;20049;-72
2022/01/04 09:22:23;;;;;;;4.30;1.75;;;;;;;10.66;100.00;98439.09;20931221;28;20053;-71
2022/01/04 09:32:25;;;;;;;3.88;1.83;;;;;;;10.72;100.00;98437.00;20937108;28;20049;-71
2022/01/04 09:42:26;;;;;;;4.95;2.15;;;;;;;10.73;100.00;98450.94;20936526;28;20110;-70
2022/01/04 09:52:28;;;;;;;6.97;2.58;;;;;;;10.82;100.00;98445.28;20933887;28;20478;-69
2022/01/04 10:02:31;;;;;;;6.90;2.03;;;;;;;10.89;100.00;98430.97;20934034;28;20048;-70
2022/01/04 10:12:49;;;;;;;5.70;2.10;;;;;;;11.02;100.00;98426.84;20934977;28;20461;-72
2022/01/04 10:22:50;;;;;;;7.47;2.53;;;;;;;11.15;100.00;98418.38;20935389;28;20566;-70
2022/01/04 10:32:59;;;;;;;4.15;1.90;;;;;;;11.11;100.00;98415.03;20930895;28;20048;-70
2022/01/04 10:43:08;;;;;;;10.10;3.83;;;;;;;11.13;100.00;98417.63;20931835;28;20049;-70
2022/01/04 10:53:24;;;;;;;4.40;1.73;;;;;;;11.20;100.00;98413.75;20931853;28;20045;-70
2022/01/04 11:03:29;;;;;;;7.00;1.90;;;;;;;11.25;100.00;98406.50;20956110;28;20044;-70
2022/01/04 11:13:31;;;;;;;7.88;1.98;;;;;;;11.48;100.00;98387.84;20986720;28;20040;-69
2022/01/04 11:23:33;;;;;;;7.22;1.70;;;;;;;11.56;100.00;98390.09;20981803;28;20044;-70
2022/01/04 11:33:59;;;;;;;5.00;2.13;;;;;;;11.68;100.00;98385.97;20979454;28;20093;-70
2022/01/04 11:44:21;;;;;;;4.70;1.52;;;;;;;11.72;100.00;98397.97;20975689;28;20060;-70
2022/01/04 11:54:29;;;;;;;5.65;1.85;;;;;;;11.79;100.00;98389.72;20977431;28;20036;-70
2022/01/04 12:04:52;;;;;;;7.22;1.90;;;;;;;11.84;99.01;98400.00;20974714;28;20186;-70
2022/01/04 12:14:54;;;;;;;4.53;1.65;;;;;;;11.78;98.44;98424.72;20980397;28;20513;-70
2022/01/04 12:25:02;;;;;;;5.03;1.75;;;;;;;11.71;99.16;98456.59;20973408;28;20128;-69
2022/01/04 12:35:07;;;;;;;7.18;1.95;;;;;;;11.55;100.00;98503.72;20972087;28;20524;-71
2022/01/04 12:45:12;;;;;;;1.40;0.68;;;;;;;8.02;100.00;98566.53;20975160;28;20121;-71
2022/01/04 12:55:14;;;;;;;;;;;;;;;7.33;100.00;98600.06;20974236;28;20048;-71
2022/01/04 13:05:18;;;;;;;2.08;0.63;;;;;;;7.16;100.00;98617.97;20971587;28;20289;-72
2022/01/04 13:15:20;;;;;;;1.10;0.40;;;;;;;7.02;100.00;98607.09;20971340;28;20049;-72
2022/01/04 13:25:21;;;;;;;2.38;0.88;;;;;;;6.82;100.00;98650.16;20971484;28;20081;-72
2022/01/04 13:35:31;;;;;;;1.10;0.43;;;;;;;6.57;100.00;98669.97;20969554;28;20550;-71
2022/01/04 13:45:49;;;;;;;2.35;0.70;;;;;;;6.43;100.00;98685.94;20969163;28;20098;-71
2022/01/04 13:55:58;;;;;;;2.55;1.30;;;;;;;6.60;100.00;98707.13;20967458;28;20044;-71
2022/01/04 14:06:00;;;;;;;3.28;0.88;;;;;;;6.71;100.00;98724.19;20967087;28;20090;-71
2022/01/04 14:16:12;;;;;;;2.25;1.00;;;;;;;6.55;100.00;98739.34;20958970;28;20065;-71
2022/01/04 14:26:13;;;;;;;5.18;1.90;;;;;;;6.58;100.00;98750.53;21061984;22;20350;-72
2022/01/04 14:36:15;;;;;;;2.35;1.20;;;;;;;6.49;100.00;98765.50;20964036;28;20103;-73
2022/01/04 14:46:16;;;;;;;4.18;1.30;;;;;;;6.42;100.00;98781.28;20981496;28;20494;-71
2022/01/04 14:56:18;;;;;;;5.40;0.93;;;;;;;6.39;100.00;98811.69;20976028;28;20059;-70
2022/01/04 15:06:20;;;;;;;1.05;0.35;;;;;;;6.36;100.00;98848.13;20979340;28;20048;-71
2022/01/04 15:16:21;;;;;;;2.67;0.60;;;;;;;6.47;100.00;98855.69;20972810;28;20048;-71
2022/01/04 15:26:23;;;;;;;4.80;0.70;;;;;;;6.45;100.00;98867.88;20977190;28;20071;-71
2022/01/04 15:36:25;;;;;;;2.20;0.60;;;;;;;6.26;100.00;98877.84;20974459;28;20463;-72
2022/01/04 15:46:26;;;;;;;1.75;0.70;;;;;;;6.27;100.00;98880.38;20976735;28;20125;-71
2022/01/04 15:56:29;;;;;;;3.08;1.48;;;;;;;6.43;100.00;98917.31;20973958;28;20040;-72
2022/01/04 16:06:30;;;;;;;5.20;2.15;;;;;;;6.49;100.00;98916.31;20967165;28;20720;-71
2022/01/04 16:16:38;;;;;;;5.63;2.60;;;;;;;6.47;100.00;98910.28;20976246;28;20040;-71
2022/01/04 16:26:44;;;;;;;8.18;5.38;;;;;;;6.36;100.00;98939.13;20975180;28;20044;-72
2022/01/04 16:36:45;;;;;;;19.77;8.88;;;;;;;6.41;100.00;98930.31;20973054;28;20052;-71
2022/01/04 16:46:48;;;;;;;12.95;6.40;;;;;;;6.34;100.00;98926.16;20973466;28;20090;-71
2022/01/04 16:56:49;;;;;;;5.80;2.85;;;;;;;6.45;100.00;98914.66;20972971;28;20614;-72
2022/01/04 17:06:52;;;;;;;4.63;2.45;;;;;;;6.38;100.00;98921.75;20966632;28;20471;-71
2022/01/04 17:16:54;;;;;;;5.38;2.08;;;;;;;6.40;100.00;98923.41;20959533;28;20090;-73
2022/01/04 17:26:55;;;;;;;5.78;1.40;;;;;;;6.43;100.00;98936.38;20958925;28;20076;-71
2022/01/04 17:36:57;;;;;;;3.47;1.50;;;;;;;6.36;100.00;98950.38;20963751;28;20094;-69
2022/01/04 17:47:18;;;;;;;7.60;3.67;;;;;;;6.36;100.00;98957.31;20966323;28;20147;-70
2022/01/04 17:57:20;;;;;;;7.03;3.58;;;;;;;6.31;100.00;98949.63;20968580;28;20048;-69
2022/01/04 18:07:21;;;;;;;5.88;2.65;;;;;;;6.29;100.00;98927.16;20965862;28;20056;-70
2022/01/04 18:17:22;;;;;;;5.35;2.90;;;;;;;6.32;100.00;98935.72;20962636;28;20041;-69
2022/01/04 18:27:24;;;;;;;7.07;3.97;;;;;;;6.32;100.00;98953.91;20968953;28;20053;-69
2022/01/04 18:37:26;;;;;;;6.78;4.07;;;;;;;6.30;100.00;98962.66;20960104;28;20070;-69
2022/01/04 18:47:27;;;;;;;6.70;3.20;;;;;;;6.18;100.00;98922.22;20964520;28;20048;-69
2022/01/04 18:57:29;;;;;;;8.75;5.15;;;;;;;6.18;100.00;98927.41;20962509;28;20044;-70
2022/01/04 19:07:30;;;;;;;6.38;3.53;;;;;;;6.07;100.00;98921.56;20962842;28;20376;-69
2022/01/04 19:17:32;;;;;;;5.70;2.67;;;;;;;6.08;100.00;98931.06;20961790;28;20049;-69
2022/01/04 19:27:35;;;;;;;5.65;2.50;;;;;;;6.08;100.00;98947.50;20970286;28;20040;-69
2022/01/04 19:37:36;;;;;;;5.72;2.90;;;;;;;6.04;100.00;98925.09;20977529;28;20106;-69
2022/01/04 19:47:38;;;;;;;7.13;2.80;;;;;;;5.98;100.00;98921.75;20977057;28;20094;-69
2022/01/04 19:57:39;;;;;;;4.60;1.73;;;;;;;6.06;100.00;98922.44;20975060;28;20398;-69
2022/01/04 20:07:41;;;;;;;4.82;1.60;;;;;;;5.94;100.00;98928.78;20976282;28;20097;-69
2022/01/04 20:17:43;;;;;;;2.90;1.13;;;;;;;5.83;100.00;98941.91;20975450;28;20048;-70
2022/01/04 20:27:44;;;;;;;4.72;1.90;;;;;;;5.86;100.00;98935.81;20982860;23;20083;-74
2022/01/04 20:37:46;;;;;;;3.53;1.30;;;;;;;5.83;100.00;98934.13;20938009;28;20486;-74
2022/01/04 20:47:47;;;;;;;4.90;1.20;;;;;;;5.85;100.00;98940.16;20934999;28;20048;-72
2022/01/04 20:57:50;;;;;;;2.20;1.00;;;;;;;5.71;100.00;98936.13;20935141;28;20048;-72
2022/01/04 21:07:54;;;;;;;4.35;1.55;;;;;;;5.72;100.00;98933.50;20929942;28;20053;-72
2022/01/04 21:17:56;;;;;;;11.83;1.33;;;;;;;5.73;100.00;98931.75;20919926;28;20501;-73
2022/01/04 21:27:58;;;;;;;4.75;0.90;;;;;;;5.66;100.00;98918.03;20931037;28;20048;-72
2022/01/04 21:37:59;;;;;;;2.40;0.90;;;;;;;5.69;100.00;98907.59;20926473;28;20292;-73
2022/01/04 21:48:01;;;;;;;1.85;0.70;;;;;;;5.62;100.00;98895.63;20929584;28;20118;-71
2022/01/04 21:58:02;;;;;;;2.58;1.00;;;;;;;5.58;100.00;98899.16;20918869;28;20452;-71
2022/01/04 22:08:04;;;;;;;4.00;1.25;;;;;;;5.53;100.00;98901.00;20928605;28;20068;-72
2022/01/04 22:18:07;;;;;;;2.50;0.57;;;;;;;5.55;100.00;98914.78;20922919;28;20045;-71
2022/01/04 22:28:08;;;;;;;6.13;1.70;;;;;;;5.49;100.00;98926.16;20922769;28;20999;-71
2022/01/04 22:38:10;;;;;;;5.75;2.00;;;;;;;5.48;100.00;98933.97;20929427;28;20048;-72
2022/01/04 22:48:12;;;;;;;2.63;0.65;;;;;;;5.44;100.00;98922.78;20930118;28;20082;-70
2022/01/04 22:58:13;;;;;;;10.05;2.88;;;;;;;5.59;100.00;98898.25;20928315;28;20102;-70
2022/01/04 23:08:15;;;;;;;10.43;3.65;;;;;;;5.57;100.00;98884.47;20943800;28;20090;-70
2022/01/04 23:18:18;;;;;;;8.40;2.67;;;;;;;5.63;100.00;98900.78;20945173;28;20543;-71
2022/01/04 23:28:20;;;;;;;3.13;1.20;;;;;;;5.74;100.00;98900.56;20942813;28;20334;-71
2022/01/04 23:38:21;;;;;;;6.15;2.40;;;;;;;5.74;100.00;98895.34;20940588;28;20070;-72
2022/01/04 23:48:23;;;;;;;3.40;1.60;;;;;;;5.72;100.00;98865.13;20943006;28;20098;-71
2022/01/04 23:58:27;;;;;;;4.28;1.80;;;;;;;5.67;100.00;98844.44;20941218;28;20141;-72
